Time;durP1;ratioP1;P1;durP2;ratioP2;P2;SDS_P1;SDS_P2;PMS_P1;PMS_P2;Temp;Humidity;BMP_temperature;BMP_pressure;BME280_temperature;BME280_humidity;BME280_pressure;Samples;Min_cycle;Max_cycle;Signal;HPM_P1;HPM_P2
2022/02/08 00:00:30;;;;;;;;;;;;;;;-139.48;100.00;61774.03;5002650;28;20049;-74
2022/02/08 00:03:18;;;;;;;7.43;3.58;;;;;;;-139.48;100.00;61774.03;5001679;28;19920;-74
2022/02/08 00:06:21;;;;;;;13.23;3.63;;;;;;;-139.48;100.00;61774.03;5017053;28;20112;-74
2022/02/08 00:09:05;;;;;;;10.32;3.80;;;;;;;-139.48;100.00;61774.03;5004492;28;20405;-74
2022/02/08 00:11:49;;;;;;;10.10;3.42;;;;;;;-139.48;100.00;61774.03;5001747;28;20076;-74
2022/02/08 00:14:33;;;;;;;;;;;;;;;-139.48;100.00;61774.03;5001992;28;20209;-74
2022/02/08 00:17:17;;;;;;;10.00;3.85;;;;;;;-139.48;100.00;61774.03;5016442;28;20045;-74
2022/02/08 00:20:03;;;;;;;11.23;4.00;;;;;;;-139.48;100.00;61774.03;5001607;28;20156;-74
2022/02/08 00:22:47;;;;;;;8.40;3.85;;;;;;;-139.48;100.00;61774.03;5001503;28;20100;-75
2022/02/08 00:25:31;;;;;;;;;;;;;;;-139.48;100.00;61774.03;5001720;28;20104;-75
2022/02/08 00:28:16;;;;;;;7.53;3.33;;;;;;;-139.48;100.00;61774.03;5001563;28;19920;-74
2022/02/08 00:31:00;;;;;;;10.10;3.92;;;;;;;-139.48;100.00;61774.03;5001676;28;20115;-75
2022/02/08 00:33:44;;;;;;;;;;;;;;;-139.48;100.00;61774.03;5016709;28;20053;-74
2022/02/08 00:36:28;;;;;;;10.25;3.97;;;;;;;-139.48;100.00;61774.03;5016020;28;19920;-74
2022/02/08 00:39:12;;;;;;;15.30;3.90;;;;;;;-139.48;100.00;61774.03;5001285;28;20152;-75
2022/02/08 00:42:04;;;;;;;10.45;3.70;;;;;;;-139.48;100.00;61774.03;5016353;28;20096;-75
2022/02/08 00:44:59;;;;;;;15.50;4.28;;;;;;;-139.48;100.00;61774.03;5016177;28;20242;-75
2022/02/08 00:47:49;;;;;;;11.30;4.30;;;;;;;-139.48;100.00;61774.03;5015968;28;20505;-75
2022/02/08 00:50:33;;;;;;;10.13;3.85;;;;;;;-139.48;100.00;61774.03;5016014;28;20048;-75
2022/02/08 00:53:18;;;;;;;12.13;3.83;;;;;;;-139.48;100.00;61774.03;5015573;28;20465;-75
2022/02/08 00:56:02;;;;;;;10.63;3.83;;;;;;;-139.48;100.00;61774.03;5000688;28;20100;-75
2022/02/08 00:58:46;;;;;;;11.65;4.15;;;;;;;-139.48;100.00;61774.03;4999985;28;20049;-75
2022/02/08 01:01:34;;;;;;;8.30;3.35;;;;;;;-139.48;100.00;61774.03;5000454;28;20076;-74
2022/02/08 01:04:18;;;;;;;10.90;3.80;;;;;;;-139.48;100.00;61774.03;5015968;28;20119;-74
2022/02/08 01:07:05;;;;;;;8.82;3.85;;;;;;;-139.48;100.00;61774.03;5015698;28;20131;-75
2022/02/08 01:09:59;;;;;;;6.75;4.07;;;;;;;-139.48;100.00;61774.03;5015649;28;20069;-75
2022/02/08 01:12:43;;;;;;;8.00;2.63;;;;;;;-139.48;100.00;61774.03;5015312;28;20071;-74
2022/02/08 01:15:27;;;;;;;12.27;3.70;;;;;;;-139.48;100.00;61774.03;5015582;28;20079;-74
2022/02/08 01:18:11;;;;;;;;;;;;;;;-139.48;100.00;61774.03;4987007;28;20068;-75
2022/02/08 01:20:55;;;;;;;8.37;3.67;;;;;;;-139.48;100.00;61774.03;5015395;28;19921;-75
2022/02/08 01:23:39;;;;;;;12.18;3.50;;;;;;;-139.48;100.00;61774.03;5015155;28;20290;-74
2022/02/08 01:26:23;;;;;;;8.63;3.47;;;;;;;-139.48;100.00;61774.03;5015196;28;20057;-74
2022/02/08 01:29:20;;;;;;;11.23;3.67;;;;;;;-139.48;100.00;61774.03;5000224;28;20453;-75
2022/02/08 01:35:42;;;;;;;;;;;;;;;-139.48;100.00;61774.03;5001599;28;20094;-74
2022/02/08 01:38:30;;;;;;;10.25;4.32;;;;;;;-139.48;100.00;61774.03;5000133;28;19924;-74
2022/02/08 01:44:35;;;;;;;10.60;4.38;;;;;;;-139.48;100.00;61774.03;5002509;28;20092;-74
2022/02/08 01:47:31;;;;;;;11.30;4.15;;;;;;;-139.48;100.00;61774.03;5014605;28;20045;-75
2022/02/08 01:50:17;;;;;;;13.65;4.32;;;;;;;-139.48;100.00;61774.03;5001487;28;20041;-75
2022/02/08 01:53:02;;;;;;;9.45;3.97;;;;;;;-139.48;100.00;61774.03;4999673;28;20048;-74
2022/02/08 01:55:46;;;;;;;10.55;4.55;;;;;;;-139.48;100.00;61774.03;4999668;28;20128;-75
2022/02/08 01:58:30;;;;;;;;;;;;;;;-139.48;100.00;61774.03;5000140;28;20465;-74
2022/02/08 02:01:14;;;;;;;9.85;4.50;;;;;;;-139.48;100.00;61774.03;4985898;28;20059;-74
2022/02/08 02:03:58;;;;;;;9.20;3.42;;;;;;;-139.48;100.00;61774.03;4999482;28;20099;-75
2022/02/08 02:06:42;;;;;;;13.90;4.53;;;;;;;-139.48;100.00;61774.03;4999679;28;20095;-74
2022/02/08 02:09:26;;;;;;;;;;;;;;;-139.48;100.00;61774.03;5000062;28;20099;-75
2022/02/08 02:12:09;;;;;;;11.95;3.65;;;;;;;-139.48;100.00;61774.03;4999281;28;19920;-74
2022/02/08 02:14:55;;;;;;;16.42;4.32;;;;;;;-139.48;100.00;61774.03;4999462;28;20056;-74
2022/02/08 02:17:39;;;;;;;10.25;4.00;;;;;;;-139.48;100.00;61774.03;4999447;28;20095;-74
2022/02/08 02:20:24;;;;;;;;;;;;;;;-139.48;100.00;61774.03;4999771;28;20053;-74
2022/02/08 02:23:08;;;;;;;8.07;3.55;;;;;;;-139.48;100.00;61774.03;4999351;28;19919;-74
2022/02/08 02:25:52;;;;;;;;;;;;;;;-139.48;100.00;61774.03;4999589;28;20053;-74
2022/02/08 02:28:36;;;;;;;10.73;3.60;;;;;;;-139.48;100.00;61774.03;5013947;28;19921;-74
2022/02/08 02:31:21;;;;;;;8.80;3.55;;;;;;;-139.48;100.00;61774.03;4998978;28;20057;-75
2022/02/08 02:34:04;;;;;;;;;;;;;;;-139.48;100.00;61774.03;5014254;28;20092;-75
2022/02/08 02:36:50;;;;;;;15.48;4.60;;;;;;;-139.48;100.00;61774.03;5013787;28;19936;-75
2022/02/08 02:39:33;;;;;;;8.80;3.83;;;;;;;-139.48;100.00;61774.03;5013850;28;20104;-74
2022/02/08 02:42:18;;;;;;;;;;;;;;;-139.48;100.00;61774.03;5014003;28;20049;-75
2022/02/08 02:45:04;;;;;;;13.43;3.88;;;;;;;-139.48;100.00;61774.03;5014127;28;19921;-75
2022/02/08 02:47:52;;;;;;;12.35;3.60;;;;;;;-139.48;100.00;61774.03;4985350;28;20044;-75
2022/02/08 02:50:37;;;;;;;12.90;5.07;;;;;;;-139.48;100.00;61774.03;5013990;28;20088;-75
2022/02/08 02:53:26;;;;;;;9.32;3.13;;;;;;;-139.48;100.00;61774.03;5013799;28;20088;-74
2022/02/08 02:56:10;;;;;;;11.35;4.95;;;;;;;-139.48;100.00;61774.03;4999775;28;20131;-74
2022/02/08 02:59:01;;;;;;;9.90;4.55;;;;;;;-139.48;100.00;61774.03;4998572;28;20128;-74
2022/02/08 03:05:08;;;;;;;10.90;3.17;;;;;;;-139.48;100.00;61774.03;5001295;28;20065;-74
2022/02/08 03:20:05;;;;;;;10.13;3.88;;;;;;;-139.48;100.00;61774.03;5012951;28;20084;-74
2022/02/08 03:22:49;;;;;;;10.73;4.28;;;;;;;-139.48;100.00;61774.03;4997587;28;20134;-74
2022/02/08 03:25:32;;;;;;;;;;;;;;;-139.48;100.00;61774.03;4998479;28;20052;-74
2022/02/08 03:28:16;;;;;;;7.88;3.10;;;;;;;-139.48;100.00;61774.03;5013017;28;19996;-75
2022/02/08 03:31:00;;;;;;;;;;;;;;;-139.48;100.00;61774.03;4998569;28;20052;-75
2022/02/08 03:33:46;;;;;;;9.50;3.75;;;;;;;-139.48;100.00;61774.03;5012934;28;19991;-75
2022/02/08 03:36:30;;;;;;;8.07;3.17;;;;;;;-139.48;100.00;61774.03;4998418;28;20057;-74
2022/02/08 03:39:19;;;;;;;18.98;3.90;;;;;;;-139.48;100.00;61774.03;4998134;28;20079;-75
2022/02/08 03:42:40;;;;;;;9.88;3.40;;;;;;;-139.48;100.00;61774.03;4998133;28;20056;-74
2022/02/08 03:45:15;;;;;;;10.95;3.10;;;;;;;-139.48;100.00;61774.03;5013029;28;20120;-75
2022/02/08 03:47:59;;;;;;;15.98;3.97;;;;;;;-139.48;100.00;61774.03;5013033;28;20076;-75
2022/02/08 03:50:45;;;;;;;;;;;;;;;-139.48;100.00;61774.03;4998256;28;20131;-75
2022/02/08 03:53:29;;;;;;;11.32;3.67;;;;;;;-139.48;100.00;61774.03;4998139;28;19921;-74
2022/02/08 03:56:14;;;;;;;;;;;;;;;-139.48;100.00;61774.03;5013093;28;20428;-75
2022/02/08 03:59:00;;;;;;;11.02;3.85;;;;;;;-139.48;100.00;61774.03;4984087;28;19924;-75
2022/02/08 04:04:53;;;;;;;12.23;3.65;;;;;;;-139.48;100.00;61774.03;5000638;28;20122;-75
2022/02/08 04:07:48;;;;;;;11.60;3.47;;;;;;;-139.48;100.00;61774.03;4984858;28;20056;-75
2022/02/08 04:10:32;;;;;;;8.23;3.05;;;;;;;-139.48;100.00;61774.03;4999446;28;20465;-75
2022/02/08 04:13:27;;;;;;;7.07;2.70;;;;;;;-139.48;100.00;61774.03;4997576;28;20048;-74
2022/02/08 04:16:31;;;;;;;6.28;2.95;;;;;;;-139.48;100.00;61774.03;5012720;28;20112;-75
2022/02/08 04:19:25;;;;;;;12.50;3.00;;;;;;;-139.48;100.00;61774.03;5000622;28;20045;-75
2022/02/08 04:34:28;;;;;;;7.00;2.70;;;;;;;-139.48;100.00;61774.03;5014499;28;20084;-75
2022/02/08 04:43:29;;;;;;;8.68;3.08;;;;;;;-139.48;100.00;61774.03;5016039;28;20096;-75
2022/02/08 04:49:25;;;;;;;11.77;4.60;;;;;;;-139.48;100.00;61774.03;4970367;28;20048;-75
2022/02/08 04:52:12;;;;;;;9.65;2.97;;;;;;;-139.48;100.00;61774.03;5001171;28;20045;-74
2022/02/08 04:55:16;;;;;;;11.80;3.33;;;;;;;-139.48;100.00;61774.03;5015899;28;20124;-74
2022/02/08 05:43:20;;;;;;;11.05;2.97;;;;;;;-139.48;100.00;61774.03;5002611;28;20444;-75
2022/02/08 05:49:08;;;;;;;5.25;2.63;;;;;;;-139.48;100.00;61774.03;5015145;28;20160;-76
2022/02/08 05:54:38;;;;;;;8.15;2.80;;;;;;;-139.48;100.00;61774.03;4999679;28;20116;-75
2022/02/08 05:57:22;;;;;;;5.60;2.30;;;;;;;-139.48;100.00;61774.03;4986398;28;20135;-76
2022/02/08 06:00:07;;;;;;;11.38;2.55;;;;;;;-139.48;100.00;61774.03;4999504;28;20048;-76
2022/02/08 06:02:51;;;;;;;7.75;2.17;;;;;;;-139.48;100.00;61774.03;4999697;28;20056;-76
2022/02/08 06:05:35;;;;;;;;;;;;;;;-139.48;100.00;61774.03;5014752;28;20048;-75
2022/02/08 06:08:19;;;;;;;4.90;2.07;;;;;;;-139.48;100.00;61774.03;5014297;28;19924;-76
2022/02/08 06:11:13;;;;;;;6.50;1.85;;;;;;;-139.48;100.00;61774.03;4999339;28;20765;-76
2022/02/08 06:13:59;;;;;;;6.88;2.22;;;;;;;-139.48;100.00;61774.03;5014652;28;20049;-75
2022/02/08 06:16:42;;;;;;;7.75;2.58;;;;;;;-139.48;100.00;61774.03;5014366;28;20095;-75
2022/02/08 06:19:26;;;;;;;13.02;2.70;;;;;;;-139.48;100.00;61774.03;5014040;28;20049;-75
2022/02/08 06:22:10;;;;;;;3.38;2.08;;;;;;;-139.48;100.00;61774.03;4999143;28;20188;-76
2022/02/08 06:24:55;;;;;;;6.75;2.47;;;;;;;-139.48;100.00;61774.03;4999439;28;20057;-74
2022/02/08 06:27:40;;;;;;;6.88;1.90;;;;;;;-139.48;100.00;61774.03;4998992;28;20053;-76
2022/02/08 06:30:24;;;;;;;6.85;2.00;;;;;;;-139.48;100.00;61774.03;4985571;28;20076;-76
2022/02/08 06:33:12;;;;;;;4.55;2.15;;;;;;;-139.48;100.00;61774.03;5013977;28;20052;-76
2022/02/08 06:35:56;;;;;;;3.13;1.90;;;;;;;-139.48;100.00;61774.03;5014270;28;20169;-75
2022/02/08 06:38:40;;;;;;;5.65;1.83;;;;;;;-139.48;100.00;61774.03;4985310;28;20119;-75
2022/02/08 06:41:24;;;;;;;6.03;2.05;;;;;;;-139.48;100.00;61774.03;4999052;28;20524;-74
2022/02/08 06:44:08;;;;;;;;;;;;;;;-139.48;100.00;61774.03;5014243;28;20060;-75
2022/02/08 06:46:52;;;;;;;6.93;2.30;;;;;;;-139.48;100.00;61774.03;4985127;28;20003;-75
2022/02/08 06:49:36;;;;;;;;;;;;;;;-139.48;100.00;61774.03;4999268;28;20552;-75
2022/02/08 06:52:20;;;;;;;7.10;2.08;;;;;;;-139.48;100.00;61774.03;5013362;28;19967;-74
2022/02/08 06:55:06;;;;;;;4.78;1.70;;;;;;;-139.48;100.00;61774.03;4998795;28;20107;-75
2022/02/08 06:58:07;;;;;;;7.95;2.05;;;;;;;-139.48;100.00;61774.03;4998782;28;20052;-74
2022/02/08 07:00:58;;;;;;;7.97;1.80;;;;;;;-139.48;100.00;61774.03;5000859;28;20173;-75
2022/02/08 07:03:46;;;;;;;7.88;2.05;;;;;;;-139.48;100.00;61774.03;5013259;28;20517;-74
2022/02/08 07:06:30;;;;;;;8.02;2.05;;;;;;;-139.48;100.00;61774.03;4998330;28;20506;-75
2022/02/08 07:09:14;;;;;;;6.15;2.00;;;;;;;-139.48;100.00;61774.03;4998367;28;20049;-74
2022/02/08 07:11:59;;;;;;;6.07;2.08;;;;;;;-139.48;100.00;61774.03;4984399;28;20045;-74
2022/02/08 07:14:44;;;;;;;4.57;1.58;;;;;;;-139.48;100.00;61774.03;4984899;28;20068;-75
2022/02/08 07:17:28;;;;;;;4.97;1.60;;;;;;;-139.48;100.00;61774.03;5013180;28;20047;-76
2022/02/08 07:20:12;;;;;;;8.20;2.40;;;;;;;-139.48;100.00;61774.03;5013160;28;20141;-73
2022/02/08 07:22:56;;;;;;;8.20;2.25;;;;;;;-139.48;100.00;61774.03;4998070;28;20128;-74
2022/02/08 07:25:40;;;;;;;9.65;2.15;;;;;;;-139.48;100.00;61774.03;4998155;28;20044;-74
2022/02/08 07:28:24;;;;;;;;;;;;;;;-139.48;100.00;61774.03;4985318;28;20191;-73
2022/02/08 07:31:25;;;;;;;8.32;2.10;;;;;;;-139.48;100.00;61774.03;5013183;28;20385;-74
2022/02/08 07:34:20;;;;;;;5.30;2.10;;;;;;;-139.48;100.00;61774.03;4999925;28;20044;-73
2022/02/08 07:39:53;;;;;;;5.68;2.30;;;;;;;-139.48;100.00;61774.03;4998312;28;20048;-74
2022/02/08 07:42:37;;;;;;;8.50;2.15;;;;;;;-139.48;100.00;61774.03;4984693;28;20140;-74
2022/02/08 07:45:21;;;;;;;;;;;;;;;-139.48;100.00;61774.03;4984829;28;20052;-74
2022/02/08 07:48:05;;;;;;;9.40;2.30;;;;;;;-139.48;100.00;61774.03;4998030;28;20012;-74
2022/02/08 07:50:51;;;;;;;6.00;2.15;;;;;;;-139.48;100.00;61774.03;4998202;28;20053;-74
2022/02/08 07:53:35;;;;;;;9.45;2.28;;;;;;;-139.48;100.00;61774.03;4997946;28;20056;-74
2022/02/08 07:56:19;;;;;;;5.20;1.92;;;;;;;-139.48;100.00;61774.03;5012735;28;20057;-74
2022/02/08 07:59:03;;;;;;;12.27;2.42;;;;;;;-139.48;100.00;61774.03;4997892;28;20045;-73
2022/02/08 08:01:47;;;;;;;7.47;2.35;;;;;;;-139.48;100.00;61774.03;4998115;28;20454;-74
2022/02/08 08:04:30;;;;;;;6.38;2.10;;;;;;;-139.48;100.00;61774.03;5013099;28;20104;-74
2022/02/08 08:07:15;;;;;;;6.53;1.90;;;;;;;-139.48;100.00;61774.03;4997855;28;20128;-74
2022/02/08 08:10:01;;;;;;;;;;;;;;;-139.48;100.00;61774.03;5016362;28;20123;-74
2022/02/08 08:12:48;;;;;;;9.07;2.13;;;;;;;-139.48;100.00;61774.03;5016441;28;20367;-75
2022/02/08 08:15:39;;;;;;;7.97;2.28;;;;;;;-139.48;100.00;61774.03;5016323;28;20052;-74
2022/02/08 08:18:44;;;;;;;7.10;1.83;;;;;;;-139.48;100.00;61774.03;5016433;28;20045;-74
2022/02/08 08:21:28;;;;;;;5.43;1.92;;;;;;;-139.48;100.00;61774.03;5004520;28;20092;-74
2022/02/08 08:24:13;;;;;;;6.43;2.15;;;;;;;-139.48;100.00;61774.03;5002302;28;20048;-74
2022/02/08 08:26:57;;;;;;;5.47;2.03;;;;;;;-139.48;100.00;61774.03;4988152;28;20049;-74
2022/02/08 08:29:42;;;;;;;5.63;2.08;;;;;;;-139.48;100.00;61774.03;4987743;28;20091;-74
2022/02/08 08:32:25;;;;;;;6.07;1.55;;;;;;;-139.48;100.00;61774.03;5001392;28;20141;-74
2022/02/08 08:35:10;;;;;;;;;;;;;;;-139.48;100.00;61774.03;5001568;28;20425;-73
2022/02/08 08:38:02;;;;;;;4.47;1.85;;;;;;;-139.48;100.00;61774.03;5001527;28;20400;-74
2022/02/08 08:52:41;;;;;;;11.27;2.58;;;;;;;-139.48;100.00;61774.03;5002095;28;20100;-71
2022/02/08 08:55:25;;;;;;;6.88;2.40;;;;;;;-139.48;100.00;61774.03;5002473;28;20060;-74
2022/02/08 08:58:09;;;;;;;4.22;1.83;;;;;;;-139.48;100.00;61774.03;5000890;28;20048;-74
2022/02/08 09:00:53;;;;;;;;;;;;;;;-139.48;100.00;61774.03;5016174;28;20514;-72
2022/02/08 09:03:37;;;;;;;6.10;1.83;;;;;;;-139.48;100.00;61774.03;5015834;28;19967;-73
2022/02/08 09:06:21;;;;;;;6.53;2.15;;;;;;;-139.48;100.00;61774.03;5000508;28;20053;-73
2022/02/08 09:09:11;;;;;;;13.48;2.67;;;;;;;-139.48;100.00;61774.03;5000845;28;20099;-72
2022/02/08 09:12:08;;;;;;;7.07;2.42;;;;;;;-139.48;100.00;61774.03;5001300;28;20064;-73
2022/02/08 09:15:13;;;;;;;6.03;2.17;;;;;;;-139.48;100.00;61774.03;5002281;28;20092;-72
2022/02/08 09:27:19;;;;;;;5.70;2.53;;;;;;;-139.48;100.00;61774.03;5002047;28;20521;-73
2022/02/08 09:30:11;;;;;;;5.90;1.60;;;;;;;-139.48;100.00;61774.03;5004098;28;20452;-73
2022/02/08 09:32:55;;;;;;;9.73;1.95;;;;;;;-139.48;100.00;61774.03;5001232;28;20382;-71
2022/02/08 09:35:39;;;;;;;7.22;2.10;;;;;;;-139.48;100.00;61774.03;5015189;28;20053;-72
2022/02/08 09:38:24;;;;;;;5.75;2.13;;;;;;;-139.48;100.00;61774.03;5014822;28;20076;-72
2022/02/08 09:41:10;;;;;;;8.43;2.20;;;;;;;-139.48;100.00;61774.03;5000312;28;20240;-72
2022/02/08 09:43:55;;;;;;;6.68;1.92;;;;;;;-139.48;100.00;61774.03;5000192;28;20121;-73
2022/02/08 09:46:39;;;;;;;9.70;2.17;;;;;;;-139.48;100.00;61774.03;5000451;28;20500;-71
2022/02/08 09:49:23;;;;;;;6.10;2.17;;;;;;;-139.48;100.00;61774.03;5014743;28;20183;-73
2022/02/08 09:52:08;;;;;;;6.13;2.03;;;;;;;-139.48;100.00;61774.03;4985995;28;20057;-72
2022/02/08 09:54:52;;;;;;;9.55;1.90;;;;;;;-139.48;100.00;61774.03;5015093;28;20108;-73
2022/02/08 09:57:36;;;;;;;8.07;1.95;;;;;;;-139.48;100.00;61774.03;4999961;28;20127;-73
2022/02/08 10:00:21;;;;;;;10.88;2.83;;;;;;;-139.48;100.00;61774.03;4999609;28;20163;-73
2022/02/08 10:03:11;;;;;;;9.70;2.70;;;;;;;-139.48;100.00;61774.03;5014573;28;20127;-73
2022/02/08 10:05:56;;;;;;;5.13;2.70;;;;;;;-139.48;100.00;61774.03;5014451;28;20096;-73
2022/02/08 10:08:40;;;;;;;7.10;1.92;;;;;;;-139.48;100.00;61774.03;4999642;28;20041;-72
2022/02/08 10:11:28;;;;;;;;;;;;;;;-139.48;100.00;61774.03;5000018;28;20052;-73
2022/02/08 10:14:23;;;;;;;10.10;2.03;;;;;;;-139.48;100.00;61774.03;5000305;28;19920;-73
2022/02/08 10:21:27;;;;;;;8.50;2.75;;;;;;;-139.48;100.00;61774.03;4995623;28;20057;-72
2022/02/08 10:23:31;;;;;;;6.82;2.25;;;;;;;-139.48;100.00;61774.03;5003019;28;20116;-72
2022/02/08 10:26:23;;;;;;;;;;;;;;;-139.48;100.00;61774.03;5014770;28;20052;-72
2022/02/08 10:38:08;;;;;;;8.70;2.20;;;;;;;-139.48;100.00;61774.03;5001826;28;20080;-72
2022/02/08 10:40:56;;;;;;;7.85;2.17;;;;;;;-139.48;100.00;61774.03;4999155;28;20053;-73
2022/02/08 10:43:40;;;;;;;7.30;2.03;;;;;;;-139.48;100.00;61774.03;4999268;28;20560;-73
2022/02/08 10:46:24;;;;;;;7.95;2.58;;;;;;;-139.48;100.00;61774.03;5013901;28;20418;-73
2022/02/08 10:49:11;;;;;;;6.25;1.92;;;;;;;-139.48;100.00;61774.03;4985381;28;20044;-73
2022/02/08 10:51:58;;;;;;;6.70;2.55;;;;;;;-139.48;100.00;61774.03;4998649;28;20625;-72
2022/02/08 10:54:47;;;;;;;9.32;2.20;;;;;;;-139.48;100.00;61774.03;4999063;28;20092;-72
2022/02/08 10:57:43;;;;;;;7.72;2.50;;;;;;;-139.48;100.00;61774.03;4999624;28;20067;-72
2022/02/08 11:00:58;;;;;;;6.72;2.40;;;;;;;-139.48;100.00;61774.03;4986247;28;20175;-71
2022/02/08 11:03:43;;;;;;;11.20;2.83;;;;;;;-139.48;100.00;61774.03;5001744;28;20064;-72
2022/02/08 11:06:39;;;;;;;8.52;2.65;;;;;;;-139.48;100.00;61774.03;4999885;28;20159;-72
2022/02/08 11:09:40;;;;;;;13.18;2.45;;;;;;;-139.48;100.00;61774.03;5013601;28;20439;-73
2022/02/08 11:15:48;;;;;;;9.05;2.67;;;;;;;-139.48;100.00;61774.03;5025746;23;20057;-71
2022/02/08 11:18:41;;;;;;;9.90;2.45;;;;;;;-139.48;100.00;61774.03;5012261;28;20056;-72
2022/02/08 11:21:38;;;;;;;13.93;2.43;;;;;;;-139.48;100.00;61774.03;5012172;28;20109;-72
2022/02/08 11:24:41;;;;;;;17.55;3.53;;;;;;;-139.48;100.00;61774.03;5012230;28;20173;-71
2022/02/08 11:27:35;;;;;;;12.13;3.78;;;;;;;-139.48;100.00;61774.03;5012110;28;20065;-72
2022/02/08 11:30:34;;;;;;;13.45;3.10;;;;;;;-139.48;100.00;61774.03;5012222;28;20125;-72
2022/02/08 11:33:55;;;;;;;15.82;2.75;;;;;;;-139.48;100.00;61774.03;5012140;28;20060;-71
2022/02/08 11:40:36;;;;;;;7.07;3.13;;;;;;;-139.48;100.00;61774.03;5011993;28;20068;-72
2022/02/08 11:43:39;;;;;;;11.85;3.22;;;;;;;-139.48;100.00;61774.03;5011437;28;20099;-71
2022/02/08 11:46:28;;;;;;;9.82;3.45;;;;;;;-139.48;100.00;61774.03;5011857;28;20144;-72
2022/02/08 11:49:31;;;;;;;10.20;3.05;;;;;;;-139.48;100.00;61774.03;5012024;28;20152;-71
2022/02/08 11:52:25;;;;;;;12.60;3.15;;;;;;;-139.48;100.00;61774.03;5012102;28;20049;-72
2022/02/08 11:56:03;;;;;;;12.25;3.05;;;;;;;-139.48;100.00;61774.03;5013001;28;20524;-71
2022/02/08 11:58:33;;;;;;;9.95;3.17;;;;;;;-139.48;100.00;61774.03;5012539;28;20100;-71
2022/02/08 12:01:26;;;;;;;9.88;2.78;;;;;;;-139.48;100.00;61774.03;5016556;28;20096;-71
2022/02/08 12:07:19;;;;;;;9.98;3.30;;;;;;;-139.48;100.00;61774.03;5013161;28;20513;-72
2022/02/08 12:10:18;;;;;;;15.45;4.05;;;;;;;-139.48;100.00;61774.03;5013351;28;20091;-72
2022/02/08 12:30:04;;;;;;;11.50;2.90;;;;;;;-139.48;100.00;61774.03;5012589;28;20457;-72
2022/02/08 12:56:05;;;;;;;10.68;2.80;;;;;;;-139.48;100.00;61774.03;5013704;28;20056;-71
2022/02/08 13:04:58;;;;;;;10.73;3.20;;;;;;;-139.48;100.00;61774.03;5015642;28;20099;-71
2022/02/08 14:03:37;;;;;;;10.30;2.72;;;;;;;-139.48;100.00;61774.03;5013723;28;20096;-72
2022/02/08 14:07:06;;;;;;;10.70;2.80;;;;;;;-139.48;100.00;61774.03;5013842;28;20104;-72
2022/02/08 14:21:08;;;;;;;10.90;4.03;;;;;;;-139.48;100.00;61774.03;5014241;28;20169;-72
2022/02/08 14:30:03;;;;;;;15.63;3.08;;;;;;;-139.48;100.00;61774.03;5013040;28;20036;-70
2022/02/08 15:06:30;;;;;;;3.58;1.80;;;;;;;-139.48;100.00;61774.03;5013367;28;20195;-72
2022/02/08 15:09:18;;;;;;;4.72;2.08;;;;;;;-139.48;100.00;61774.03;5012800;28;20095;-70
2022/02/08 15:12:16;;;;;;;10.32;2.15;;;;;;;-139.48;100.00;61774.03;5012671;28;20049;-70
2022/02/08 15:17:47;;;;;;;4.20;2.03;;;;;;;-139.48;100.00;61774.03;5012113;28;20517;-72
2022/02/08 15:20:31;;;;;;;;;;;;;;;-139.48;100.00;61774.03;5013501;28;20103;-72
2022/02/08 15:23:18;;;;;;;4.80;1.90;;;;;;;-139.48;100.00;61774.03;5012363;28;19924;-72
2022/02/08 15:26:04;;;;;;;10.63;1.80;;;;;;;-139.48;100.00;61774.03;5013030;28;20303;-72
2022/02/08 15:28:48;;;;;;;7.70;1.90;;;;;;;-139.48;100.00;61774.03;5013045;28;20052;-72
2022/02/08 15:31:34;;;;;;;4.03;1.70;;;;;;;-139.48;100.00;61774.03;4998636;28;20413;-72
2022/02/08 15:34:18;;;;;;;5.35;2.40;;;;;;;-139.48;100.00;61774.03;4998276;28;20052;-72
2022/02/08 15:37:03;;;;;;;7.53;2.47;;;;;;;-139.48;100.00;61774.03;5013378;28;20049;-72
2022/02/08 15:39:50;;;;;;;4.50;1.70;;;;;;;-139.48;100.00;61774.03;4998288;28;20049;-72
2022/02/08 15:42:38;;;;;;;5.47;1.90;;;;;;;-139.48;100.00;61774.03;5012088;28;20103;-73
2022/02/08 15:45:27;;;;;;;4.95;2.30;;;;;;;-139.48;100.00;61774.03;5011720;28;20049;-72
2022/02/08 15:48:14;;;;;;;3.85;2.00;;;;;;;-139.48;100.00;61774.03;4998860;28;20052;-72
2022/02/08 16:06:12;;;;;;;9.43;2.53;;;;;;;-139.48;100.00;61774.03;5011851;28;20044;-72
2022/02/08 16:09:05;;;;;;;11.95;2.97;;;;;;;-139.48;100.00;61774.03;5013426;28;20044;-72
2022/02/08 16:15:39;;;;;;;13.85;2.80;;;;;;;-139.48;100.00;61774.03;5011819;28;20049;-73
2022/02/08 16:18:25;;;;;;;7.50;2.40;;;;;;;-139.48;100.00;61774.03;5011228;28;20072;-72
2022/02/08 16:21:31;;;;;;;8.00;2.83;;;;;;;-139.48;100.00;61774.03;5012854;28;20073;-72
2022/02/08 16:24:29;;;;;;;8.77;2.83;;;;;;;-139.48;100.00;61774.03;5012955;28;20092;-72
2022/02/08 17:00:06;;;;;;;9.20;3.10;;;;;;;-139.48;100.00;61774.03;5015001;28;20099;-71
2022/02/08 17:02:56;;;;;;;7.20;3.00;;;;;;;-139.48;100.00;61774.03;5014699;28;20472;-72
2022/02/08 17:05:40;;;;;;;8.65;2.63;;;;;;;-139.48;100.00;61774.03;5014487;28;20045;-72
2022/02/08 17:08:26;;;;;;;;;;;;;;;-139.48;100.00;61774.03;5015322;28;20096;-72
2022/02/08 17:11:10;;;;;;;19.70;3.63;;;;;;;-139.48;100.00;61774.03;5014724;28;19955;-72
2022/02/08 17:44:58;;;;;;;9.75;3.70;;;;;;;-139.48;100.00;61774.03;4982351;28;20117;-73
2022/02/08 17:50:10;;;;;;;12.40;3.83;;;;;;;-139.48;100.00;61774.03;4995455;28;20093;-73
2022/02/08 17:52:55;;;;;;;14.05;3.50;;;;;;;-139.48;100.00;61774.03;4980322;28;20457;-73
2022/02/08 17:55:39;;;;;;;12.20;3.78;;;;;;;-139.48;100.00;61774.03;4995327;28;20061;-73
2022/02/08 17:58:23;;;;;;;9.75;3.58;;;;;;;-139.48;100.00;61774.03;4980364;28;20053;-72
2022/02/08 18:01:07;;;;;;;8.63;3.10;;;;;;;-139.48;100.00;61774.03;4995233;28;20048;-72
2022/02/08 18:03:51;;;;;;;10.07;3.67;;;;;;;-139.48;100.00;61774.03;4995229;28;20142;-73
2022/02/08 18:06:35;;;;;;;11.10;3.80;;;;;;;-139.48;100.00;61774.03;4967988;28;20093;-73
2022/02/08 18:09:20;;;;;;;8.30;3.58;;;;;;;-139.48;100.00;61774.03;4981316;28;20108;-73
2022/02/08 18:12:05;;;;;;;11.63;4.28;;;;;;;-139.48;100.00;61774.03;4995853;28;20132;-72
2022/02/08 18:14:56;;;;;;;7.85;3.03;;;;;;;-139.48;100.00;61774.03;4995126;28;20050;-70
2022/02/08 18:17:47;;;;;;;10.70;3.28;;;;;;;-139.48;100.00;61774.03;4980850;28;20088;-72
2022/02/08 18:20:39;;;;;;;7.38;3.30;;;;;;;-139.48;100.00;61774.03;4966891;28;20180;-72
2022/02/08 18:51:57;;;;;;;5.82;2.40;;;;;;;-139.48;100.00;61774.03;4982095;28;20097;-72
2022/02/08 18:56:48;;;;;;;7.38;2.47;;;;;;;-139.48;100.00;61774.03;4993805;28;20104;-72
2022/02/08 19:20:29;;;;;;;3.47;1.70;;;;;;;-139.48;100.00;61774.03;4993333;28;20097;-73
2022/02/08 19:23:13;;;;;;;3.85;1.85;;;;;;;-139.48;100.00;61774.03;4965706;28;20572;-72
2022/02/08 19:25:57;;;;;;;5.15;2.80;;;;;;;-139.48;100.00;61774.03;4993811;28;20486;-71
2022/02/08 19:28:41;;;;;;;;;;;;;;;-139.48;100.00;61774.03;4978980;28;20092;-73
2022/02/08 19:31:25;;;;;;;5.07;2.72;;;;;;;-139.48;100.00;61774.03;4979068;28;20356;-73
2022/02/08 19:34:09;;;;;;;3.45;2.33;;;;;;;-139.48;100.00;61774.03;4978859;28;20092;-73
2022/02/08 19:36:57;;;;;;;3.50;2.65;;;;;;;-139.48;100.00;61774.03;4978751;28;20112;-71
2022/02/08 19:39:41;;;;;;;6.40;3.80;;;;;;;-139.48;100.00;61774.03;4979202;28;20130;-73
2022/02/08 19:42:25;;;;;;;6.30;3.97;;;;;;;-139.48;100.00;61774.03;4978711;28;20097;-73
2022/02/08 19:45:21;;;;;;;8.02;3.97;;;;;;;-139.48;100.00;61774.03;4993547;28;20083;-72
2022/02/08 19:48:05;;;;;;;5.43;3.72;;;;;;;-139.48;100.00;61774.03;4993618;28;20073;-73
2022/02/08 19:50:49;;;;;;;6.05;3.30;;;;;;;-139.48;100.00;61774.03;4993226;28;20045;-73
2022/02/08 19:53:35;;;;;;;4.97;3.03;;;;;;;-139.48;100.00;61774.03;4978564;28;20096;-73
2022/02/08 19:56:32;;;;;;;4.85;3.00;;;;;;;-139.48;100.00;61774.03;4978702;28;20108;-72
2022/02/08 19:59:20;;;;;;;5.40;3.08;;;;;;;-139.48;100.00;61774.03;4980451;28;20045;-72
2022/02/08 20:02:09;;;;;;;3.85;2.83;;;;;;;-139.48;100.00;61774.03;4993599;28;20077;-73
2022/02/08 20:04:53;;;;;;;5.15;3.08;;;;;;;-139.48;100.00;61774.03;4980588;28;20052;-73